createdAt,value
2022-11-25T00:01:22.878Z,101024.94
2022-11-25T00:03:51.814Z,101046.56
2022-11-25T00:06:21.383Z,101052.59
2022-11-25T00:08:51.409Z,101057.81
2022-11-25T00:11:19.800Z,101059.56
2022-11-25T00:13:49.097Z,101062.03
2022-11-25T00:16:20.406Z,101067.88
2022-11-25T00:18:49.704Z,101063.44
2022-11-25T00:21:19.685Z,101070.34
2022-11-25T00:23:53.350Z,101087.81
2022-11-25T00:26:22.351Z,101086.13
2022-11-25T00:28:51.427Z,101062.03
2022-11-25T00:31:22.769Z,101082.19
2022-11-25T00:33:51.548Z,101059.75
2022-11-25T00:36:21.651Z,101065.94
2022-11-25T00:38:54.682Z,101059.06
2022-11-25T00:41:40.992Z,101060.81
2022-11-25T00:44:29.001Z,101087.78
2022-11-25T00:46:58.810Z,101105.13
2022-11-25T00:49:27.440Z,101120.00
2022-11-25T00:51:55.816Z,101126.91
2022-11-25T00:54:24.133Z,101129.50
2022-11-25T00:56:52.864Z,101150.22
2022-11-25T00:59:21.338Z,101144.13
2022-11-25T01:01:50.110Z,101138.69
2022-11-25T01:04:19.805Z,101142.91
2022-11-25T01:06:47.845Z,101164.63
2022-11-25T01:09:15.888Z,101170.69
2022-11-25T01:11:44.120Z,101164.63
2022-11-25T01:14:12.807Z,101160.97
2022-11-25T01:16:41.030Z,101173.84
2022-11-25T01:19:09.148Z,101189.38
2022-11-25T01:21:38.998Z,101176.19
2022-11-25T01:24:08.297Z,101190.09
2022-11-25T01:26:38.115Z,101192.78
2022-11-25T01:29:08.061Z,101199.88
2022-11-25T01:31:37.796Z,101197.19
2022-11-25T01:34:08.527Z,101204.13
2022-11-25T01:36:36.552Z,101189.25
2022-11-25T01:39:06.765Z,101200.59
2022-11-25T01:41:36.080Z,101203.34
2022-11-25T01:44:13.161Z,101206.22
2022-11-25T01:46:59.475Z,101213.41
2022-11-25T01:49:33.254Z,101210.84
2022-11-25T01:52:07.535Z,101206.47
2022-11-25T01:54:43.705Z,101224.81
2022-11-25T01:57:15.092Z,101225.66
2022-11-25T01:59:49.644Z,101224.59
2022-11-25T02:02:19.136Z,101231.44
2022-11-25T02:04:49.020Z,101234.81
2022-11-25T02:07:25.150Z,101250.41
2022-11-25T02:09:56.964Z,101255.56
2022-11-25T02:12:25.436Z,101269.44
2022-11-25T02:14:56.318Z,101276.38
2022-11-25T02:17:25.019Z,101283.53
2022-11-25T02:20:01.145Z,101290.69
2022-11-25T02:22:42.520Z,101309.34
2022-11-25T02:25:16.257Z,101311.34
2022-11-25T02:27:47.369Z,101324.56
2022-11-25T02:30:15.755Z,101335.00
2022-11-25T02:32:47.211Z,101359.38
2022-11-25T02:35:31.654Z,101349.88
2022-11-25T02:38:05.219Z,101355.91
2022-11-25T02:40:37.191Z,101366.22
2022-11-25T02:43:05.265Z,101381.00
2022-11-25T02:45:45.603Z,101371.84
2022-11-25T02:48:13.802Z,101357.50
2022-11-25T02:50:41.789Z,101356.28
2022-11-25T02:53:10.105Z,101362.75
2022-11-25T02:55:39.768Z,101366.50
2022-11-25T02:58:08.254Z,101361.41
2022-11-25T03:00:36.450Z,101350.22
2022-11-25T03:03:04.976Z,101346.75
2022-11-25T03:05:33.063Z,101345.13
2022-11-25T03:08:01.388Z,101351.19
2022-11-25T03:10:29.660Z,101352.84
2022-11-25T03:12:59.240Z,101379.75
2022-11-25T03:15:27.340Z,101441.88
2022-11-25T03:17:56.613Z,101539.66
2022-11-25T03:20:24.961Z,101535.25
2022-11-25T03:22:53.011Z,101549.50
2022-11-25T03:25:21.920Z,101581.81
2022-11-25T03:27:50.360Z,101607.03
2022-11-25T03:30:21.723Z,101619.41
2022-11-25T03:32:50.288Z,101641.22
2022-11-25T03:35:18.844Z,101650.97
2022-11-25T03:37:46.914Z,101682.97
2022-11-25T03:40:17.015Z,101693.09
2022-11-25T03:42:45.343Z,101718.03
2022-11-25T03:45:16.045Z,101730.75
2022-11-25T03:47:46.141Z,101735.69
2022-11-25T03:50:16.798Z,101745.06
2022-11-25T03:52:45.061Z,101742.31
2022-11-25T03:55:14.165Z,101749.19
2022-11-25T03:57:42.909Z,101740.34
2022-11-25T04:00:12.517Z,101728.06
2022-11-25T04:02:40.530Z,101744.28
2022-11-25T04:05:10.601Z,101736.22
2022-11-25T04:07:38.720Z,101721.66
2022-11-25T04:10:08.036Z,101706.13
2022-11-25T04:12:47.863Z,101700.13
2022-11-25T04:15:16.420Z,101682.84
2022-11-25T04:17:44.689Z,101662.84
2022-11-25T04:20:16.034Z,101650.69
2022-11-25T04:22:44.332Z,101648.09
2022-11-25T04:25:13.052Z,101641.22
2022-11-25T04:27:41.122Z,101649.75
2022-11-25T04:30:10.123Z,101657.56
2022-11-25T04:32:39.021Z,101677.44
2022-11-25T04:35:07.754Z,101693.88
2022-11-25T04:37:37.185Z,101687.66
2022-11-25T04:40:06.316Z,101673.66
2022-11-25T04:42:34.845Z,101664.00
2022-11-25T04:45:22.455Z,101655.34
2022-11-25T04:47:52.054Z,101643.13
2022-11-25T04:50:23.669Z,101633.44
2022-11-25T04:52:53.004Z,101629.00
2022-11-25T04:55:21.049Z,101634.97
2022-11-25T04:57:49.132Z,101632.41
2022-11-25T05:00:16.937Z,101625.53
2022-11-25T05:02:45.025Z,101630.66
2022-11-25T05:05:13.129Z,101633.16
2022-11-25T05:07:41.239Z,101640.88
2022-11-25T05:10:11.665Z,101657.28
2022-11-25T05:12:39.948Z,101670.28
2022-11-25T05:15:09.315Z,101678.94
2022-11-25T05:17:37.442Z,101691.13
2022-11-25T05:20:06.847Z,101708.47
2022-11-25T05:22:35.785Z,101717.94
2022-11-25T05:25:05.712Z,101743.81
2022-11-25T05:27:35.129Z,101744.47
2022-11-25T05:30:03.215Z,101746.00
2022-11-25T05:32:31.232Z,101746.69
2022-11-25T05:34:59.260Z,101749.22
2022-11-25T05:37:27.324Z,101738.81
2022-11-25T05:39:55.348Z,101735.41
2022-11-25T05:42:23.577Z,101731.88
2022-11-25T05:44:52.924Z,101734.44
2022-11-25T05:47:20.896Z,101746.44
2022-11-25T05:49:48.858Z,101756.69
2022-11-25T05:52:16.898Z,101774.03
2022-11-25T05:54:44.824Z,101780.63
2022-11-25T05:57:13.062Z,101800.13
2022-11-25T05:59:41.034Z,101828.63
2022-11-25T06:02:10.868Z,101858.59
2022-11-25T06:04:39.425Z,101885.00
2022-11-25T06:07:07.716Z,101906.00
2022-11-25T06:09:36.397Z,101915.78
2022-11-25T06:12:04.584Z,101939.25
2022-11-25T06:14:32.778Z,101967.81
2022-11-25T06:17:00.765Z,101996.31
2022-11-25T06:19:30.284Z,102010.03
2022-11-25T06:21:59.422Z,102032.38
2022-11-25T06:24:27.387Z,102066.03
2022-11-25T06:26:55.379Z,102078.06
2022-11-25T06:29:23.342Z,102088.41
2022-11-25T06:31:51.451Z,102090.97
2022-11-25T06:34:19.449Z,102108.25
2022-11-25T06:36:50.106Z,102118.56
2022-11-25T06:39:18.112Z,102127.03
2022-11-25T06:41:47.227Z,102122.47
2022-11-25T06:44:15.342Z,102132.69
2022-11-25T06:46:49.288Z,102127.38
2022-11-25T06:49:17.484Z,102128.84
2022-11-25T06:51:45.422Z,102132.06
2022-11-25T06:54:14.823Z,102135.56
2022-11-25T06:56:42.822Z,102131.53
2022-11-25T06:59:10.861Z,102120.50
2022-11-25T07:01:39.446Z,102119.81
2022-11-25T07:04:07.455Z,102122.56
2022-11-25T07:06:35.481Z,102123.50
2022-11-25T07:09:04.419Z,102121.91
2022-11-25T07:11:36.220Z,102128.88
2022-11-25T07:14:05.835Z,102129.59
2022-11-25T07:16:36.044Z,102130.34
2022-11-25T07:19:04.734Z,102139.69
2022-11-25T07:21:34.394Z,102149.09
2022-11-25T07:24:05.600Z,102160.19
2022-11-25T07:26:39.558Z,102170.44
2022-11-25T07:29:29.306Z,102185.88
2022-11-25T07:31:58.291Z,102196.81
2022-11-25T07:34:26.305Z,102178.47
2022-11-25T07:36:54.523Z,102170.94
2022-11-25T07:39:24.380Z,102147.06
2022-11-25T07:41:55.095Z,102159.53
2022-11-25T07:44:23.284Z,102152.81
2022-11-25T07:46:52.021Z,102165.81
2022-11-25T07:49:21.842Z,102191.84
2022-11-25T07:51:53.616Z,102183.16
2022-11-25T07:54:23.091Z,102193.50
2022-11-25T07:56:53.675Z,102200.38
2022-11-25T07:59:23.110Z,102211.47
2022-11-25T08:01:52.042Z,102220.84
2022-11-25T08:04:21.302Z,102231.00
2022-11-25T08:06:53.466Z,102248.94
2022-11-25T08:09:25.300Z,102260.00
2022-11-25T08:11:54.894Z,102258.97
2022-11-25T08:14:23.027Z,102255.41
2022-11-25T08:16:51.242Z,102243.19
2022-11-25T08:19:19.801Z,102231.00
2022-11-25T08:21:49.897Z,102222.28
2022-11-25T08:24:20.492Z,102227.44
2022-11-25T08:26:49.787Z,102227.34
2022-11-25T08:29:20.864Z,102225.50
2022-11-25T08:31:48.938Z,102216.78
2022-11-25T08:34:19.940Z,102216.59
2022-11-25T08:36:48.979Z,102223.38
2022-11-25T08:42:07.294Z,102224.19
2022-11-25T08:44:37.291Z,102226.81
2022-11-25T08:47:05.624Z,102231.94
2022-11-25T08:49:39.175Z,102220.59
2022-11-25T08:52:09.235Z,102230.00
2022-11-25T08:54:37.384Z,102236.94
2022-11-25T08:57:05.990Z,102231.72
2022-11-25T08:59:34.170Z,102231.72
2022-11-25T09:02:03.974Z,102241.22
2022-11-25T09:04:32.131Z,102243.78
2022-11-25T09:07:00.181Z,102247.19
2022-11-25T09:09:28.915Z,102241.91
2022-11-25T09:11:56.984Z,102243.53
2022-11-25T09:14:25.382Z,102238.25
2022-11-25T09:16:53.738Z,102243.41
2022-11-25T09:19:23.132Z,102237.31
2022-11-25T09:21:51.175Z,102244.22
2022-11-25T09:24:19.232Z,102241.53
2022-11-25T09:26:47.658Z,102251.88
2022-11-25T09:29:15.593Z,102253.50
2022-11-25T09:31:43.665Z,102267.34
2022-11-25T09:34:11.770Z,102252.47
2022-11-25T09:36:41.177Z,102268.84
2022-11-25T09:39:09.216Z,102269.59
2022-11-25T09:42:12.702Z,102282.44
2022-11-25T09:45:22.659Z,102284.84
2022-11-25T09:48:01.330Z,102294.09
2022-11-25T09:50:46.851Z,102305.00
2022-11-25T09:53:28.294Z,102310.69
2022-11-25T09:56:03.749Z,102327.81
2022-11-25T09:58:35.643Z,102315.31
2022-11-25T10:01:07.254Z,102315.31
2022-11-25T10:03:42.394Z,102304.03
2022-11-25T10:06:17.533Z,102311.97
2022-11-25T10:08:50.468Z,102308.66
2022-11-25T10:11:32.611Z,102314.03
2022-11-25T10:14:06.814Z,102312.41
2022-11-25T10:16:40.627Z,102320.19
2022-11-25T10:19:18.114Z,102333.88
2022-11-25T10:21:46.918Z,102340.47
2022-11-25T10:24:18.446Z,102346.28
2022-11-25T10:26:49.713Z,102342.56
2022-11-25T10:29:25.753Z,102351.16
2022-11-25T10:32:01.708Z,102350.38
2022-11-25T10:34:36.859Z,102349.59
2022-11-25T10:37:12.820Z,102361.88
2022-11-25T10:39:42.277Z,102363.75
2022-11-25T10:42:17.393Z,102365.50
2022-11-25T10:44:45.467Z,102360.28
2022-11-25T10:47:35.552Z,102371.56
2022-11-25T10:50:21.455Z,102388.91
2022-11-25T10:52:56.579Z,102382.75
2022-11-25T10:55:27.824Z,102388.72
2022-11-25T10:57:56.645Z,102398.13
2022-11-25T11:00:35.253Z,102424.97
2022-11-25T11:03:15.709Z,102424.91
2022-11-25T11:05:48.957Z,102441.41
2022-11-25T11:08:20.922Z,102434.47
2022-11-25T11:11:12.716Z,102425.63
2022-11-25T11:13:40.824Z,102422.03
2022-11-25T11:16:29.237Z,102430.56
2022-11-25T11:18:57.652Z,102436.50
2022-11-25T11:21:31.455Z,102455.63
2022-11-25T11:24:01.377Z,102471.16
2022-11-25T11:26:33.366Z,102457.91
2022-11-25T11:29:04.184Z,102466.47
2022-11-25T11:31:39.266Z,102475.13
2022-11-25T11:34:24.331Z,102467.28
2022-11-25T11:37:09.818Z,102468.09
2022-11-25T11:40:00.137Z,102468.91
2022-11-25T11:42:38.827Z,102473.28
2022-11-25T11:45:23.542Z,102468.75
2022-11-25T11:48:05.553Z,102472.16
2022-11-25T11:50:37.468Z,102472.00
2022-11-25T11:53:17.199Z,102476.34
2022-11-25T11:56:26.665Z,102473.78
2022-11-25T11:59:02.845Z,102492.19
2022-11-25T12:01:47.540Z,102489.66
2022-11-25T12:04:21.598Z,102494.97
2022-11-25T12:07:03.714Z,102490.72
2022-11-25T12:09:38.817Z,102501.25
2022-11-25T12:12:12.734Z,102505.66
2022-11-25T12:14:47.403Z,102505.75
2022-11-25T12:17:19.856Z,102506.69
2022-11-25T12:19:56.416Z,102500.59
2022-11-25T12:22:31.328Z,102505.03
2022-11-25T12:25:10.072Z,102516.31
2022-11-25T12:27:41.648Z,102525.88
2022-11-25T12:30:14.924Z,102525.88
2022-11-25T12:32:54.606Z,102533.59
2022-11-25T12:35:32.646Z,102533.47
2022-11-25T12:38:07.145Z,102536.84
2022-11-25T12:40:39.047Z,102545.53
2022-11-25T12:43:22.304Z,102544.66
2022-11-25T12:46:01.177Z,102556.16
2022-11-25T12:48:29.321Z,102551.16
2022-11-25T12:51:04.131Z,102560.16
2022-11-25T12:53:41.869Z,102569.03
2022-11-25T12:56:19.715Z,102579.63
2022-11-25T12:58:57.148Z,102575.41
2022-11-25T13:01:49.017Z,102592.13
2022-11-25T13:05:18.598Z,102588.84
2022-11-25T13:07:58.136Z,102600.22
2022-11-25T13:10:39.480Z,102599.44
2022-11-25T13:13:34.471Z,102603.72
2022-11-25T13:16:06.004Z,102622.59
2022-11-25T13:18:41.300Z,102637.06
2022-11-25T13:21:10.791Z,102646.16
2022-11-25T13:23:53.373Z,102657.13
2022-11-25T13:26:49.139Z,102660.16
2022-11-25T13:30:00.153Z,102639.78
2022-11-25T13:32:40.585Z,102622.09
2022-11-25T13:35:48.172Z,102610.63
2022-11-25T13:38:59.029Z,102599.28
2022-11-25T13:41:37.666Z,102594.22
2022-11-25T13:44:08.380Z,102595.19
2022-11-25T13:46:41.304Z,102590.97
2022-11-25T13:49:26.481Z,102593.81
2022-11-25T13:51:58.314Z,102580.00
2022-11-25T13:54:32.905Z,102594.78
2022-11-25T13:57:27.217Z,102604.38
2022-11-25T13:59:58.535Z,102611.41
2022-11-25T14:02:50.581Z,102622.81
2022-11-25T14:05:45.052Z,102627.09
2022-11-25T14:08:40.414Z,102624.53
2022-11-25T14:11:35.250Z,102630.66
2022-11-25T14:14:21.304Z,102627.09
2022-11-25T14:17:02.480Z,102640.09
2022-11-25T14:19:53.017Z,102641.84
2022-11-25T14:22:38.413Z,102652.47
2022-11-25T14:25:17.665Z,102655.09
2022-11-25T14:27:49.597Z,102655.88
2022-11-25T14:30:19.053Z,102663.00
2022-11-25T14:32:57.084Z,102670.06
2022-11-25T14:35:31.571Z,102679.06
2022-11-25T14:38:04.436Z,102705.34
2022-11-25T14:40:39.867Z,102722.66
2022-11-25T14:43:14.094Z,102737.53
2022-11-25T14:45:42.336Z,102736.13
2022-11-25T14:48:17.364Z,102714.75
2022-11-25T14:50:56.724Z,102706.38
2022-11-25T14:53:25.706Z,102690.09
2022-11-25T14:55:56.407Z,102685.06
2022-11-25T14:58:24.753Z,102686.88
2022-11-25T15:01:00.131Z,102686.09
2022-11-25T15:03:28.406Z,102698.31
2022-11-25T15:05:58.179Z,102705.38
2022-11-25T15:08:27.582Z,102719.41
2022-11-25T15:10:59.345Z,102729.03
2022-11-25T15:13:34.640Z,102756.03
2022-11-25T15:16:09.332Z,102764.78
2022-11-25T15:18:39.412Z,102773.44
2022-11-25T15:21:07.895Z,102780.38
2022-11-25T15:23:39.307Z,102790.84
2022-11-25T15:26:19.341Z,102803.84
2022-11-25T15:28:48.184Z,102811.63
2022-11-25T15:31:21.256Z,102814.16
2022-11-25T15:33:55.280Z,102828.06
2022-11-25T15:36:23.809Z,102827.19
2022-11-25T15:38:52.397Z,102848.22
2022-11-25T15:41:31.288Z,102865.00
2022-11-25T15:44:02.246Z,102880.91
2022-11-25T15:46:32.130Z,102910.78
2022-11-25T15:49:02.543Z,102928.41
2022-11-25T15:51:35.229Z,102949.47
2022-11-25T15:54:06.238Z,102983.50
2022-11-25T15:56:39.884Z,103003.56
2022-11-25T15:59:41.179Z,103020.19
2022-11-25T16:02:45.873Z,103020.25
2022-11-25T16:05:20.172Z,103041.06
2022-11-25T16:08:02.900Z,103046.28
2022-11-25T16:10:33.913Z,103051.53
2022-11-25T16:13:29.236Z,103052.41
2022-11-25T16:16:00.621Z,103059.38
2022-11-25T16:18:40.296Z,103048.13
2022-11-25T16:21:11.827Z,103038.69
2022-11-25T16:23:43.152Z,103044.84
2022-11-25T16:26:17.878Z,103039.72
2022-11-25T16:28:55.224Z,103039.75
2022-11-25T16:31:24.106Z,103045.00
2022-11-25T16:33:55.358Z,103045.91
2022-11-25T16:36:23.389Z,103036.34
2022-11-25T16:38:53.405Z,103036.34
2022-11-25T16:41:24.454Z,103036.28
2022-11-25T16:43:57.091Z,103041.50
2022-11-25T16:46:26.936Z,103043.19
2022-11-25T16:48:55.131Z,103049.25
2022-11-25T16:51:25.489Z,103046.63
2022-11-25T16:53:53.576Z,103051.91
2022-11-25T16:56:27.926Z,103054.63
2022-11-25T16:58:59.211Z,103052.97
2022-11-25T17:01:30.462Z,103055.69
2022-11-25T17:03:58.730Z,103062.69
2022-11-25T17:06:28.493Z,103064.50
2022-11-25T17:08:56.583Z,103068.03
2022-11-25T17:11:29.845Z,103074.16
2022-11-25T17:14:02.478Z,103075.03
2022-11-25T17:16:31.286Z,103078.50
2022-11-25T17:19:01.312Z,103076.75
2022-11-25T17:21:29.780Z,103071.59
2022-11-25T17:24:02.853Z,103083.75
2022-11-25T17:26:38.950Z,103085.50
2022-11-25T17:29:13.235Z,103090.72
2022-11-25T17:31:42.022Z,103095.13
2022-11-25T17:34:14.742Z,103102.94
2022-11-25T17:36:42.929Z,103109.91
2022-11-25T17:39:12.485Z,103113.41
2022-11-25T17:41:45.174Z,103120.34
2022-11-25T17:44:26.038Z,103126.44
2022-11-25T17:46:54.110Z,103126.44
2022-11-25T17:49:23.020Z,103127.31
2022-11-25T17:51:51.986Z,103133.44
2022-11-25T17:54:20.007Z,103135.13
2022-11-25T17:56:52.325Z,103137.72
2022-11-25T17:59:26.562Z,103142.91
2022-11-25T18:01:55.997Z,103137.72
2022-11-25T18:04:25.890Z,103141.19
2022-11-25T18:06:53.976Z,103149.03
2022-11-25T18:09:22.124Z,103160.31
2022-11-25T18:11:53.224Z,103170.75
2022-11-25T18:14:26.714Z,103171.63
2022-11-25T18:16:55.822Z,103182.09
2022-11-25T18:19:23.822Z,103182.09
2022-11-25T18:21:51.776Z,103188.16
2022-11-25T18:24:19.756Z,103188.16
2022-11-25T18:26:53.077Z,103198.56
2022-11-25T18:29:25.890Z,103198.53
2022-11-25T18:31:56.609Z,103190.69
2022-11-25T18:34:25.285Z,103191.53
2022-11-25T18:36:54.355Z,103186.31
2022-11-25T18:39:23.428Z,103191.50
2022-11-25T18:41:53.976Z,103185.38
2022-11-25T18:44:27.276Z,103184.50
2022-11-25T18:46:55.443Z,103184.50
2022-11-25T18:49:23.964Z,103187.09
2022-11-25T18:51:51.975Z,103194.03
2022-11-25T18:54:19.927Z,103204.44
2022-11-25T18:56:52.373Z,103205.31
2022-11-25T18:59:28.258Z,103211.38
2022-11-25T19:01:56.425Z,103209.66
2022-11-25T19:04:24.462Z,103205.28
2022-11-25T19:06:52.714Z,103201.84
2022-11-25T19:09:20.670Z,103191.41
2022-11-25T19:11:52.783Z,103195.72
2022-11-25T19:14:31.215Z,103200.06
2022-11-25T19:17:03.098Z,103197.50
2022-11-25T19:19:31.608Z,103206.19
2022-11-25T19:22:03.346Z,103207.06
2022-11-25T19:24:31.335Z,103212.28
2022-11-25T19:26:59.346Z,103207.94
2022-11-25T19:29:40.305Z,103219.25
2022-11-25T19:32:20.445Z,103224.47
2022-11-25T19:34:52.255Z,103221.84
2022-11-25T19:37:22.379Z,103228.78
2022-11-25T19:39:51.587Z,103228.78
2022-11-25T19:42:19.959Z,103231.41
2022-11-25T19:44:49.331Z,103234.00
2022-11-25T19:47:20.569Z,103230.50
2022-11-25T19:49:49.399Z,103229.63
2022-11-25T19:52:19.570Z,103235.69
2022-11-25T19:54:48.853Z,103228.75
2022-11-25T19:57:18.522Z,103236.53
2022-11-25T19:59:47.008Z,103239.13
2022-11-25T20:02:18.878Z,103232.19
2022-11-25T20:04:47.992Z,103231.31
2022-11-25T20:07:19.508Z,103234.75
2022-11-25T20:09:47.677Z,103232.16
2022-11-25T20:12:21.653Z,103225.19
2022-11-25T20:14:50.558Z,103220.84
2022-11-25T20:17:31.018Z,103224.31
2022-11-25T20:20:04.688Z,103233.00
2022-11-25T20:22:37.518Z,103235.63
2022-11-25T20:25:10.667Z,103232.16
2022-11-25T20:27:38.754Z,103236.53
2022-11-25T20:30:14.904Z,103229.59
2022-11-25T20:32:44.353Z,103232.22
2022-11-25T20:35:14.624Z,103240.03
2022-11-25T20:37:54.071Z,103242.63
2022-11-25T20:40:24.764Z,103240.06
2022-11-25T20:42:54.094Z,103240.06
2022-11-25T20:45:23.842Z,103240.94
2022-11-25T20:47:53.541Z,103234.00
2022-11-25T20:50:31.582Z,103237.44
2022-11-25T20:52:59.672Z,103245.25
2022-11-25T20:55:27.658Z,103255.66
2022-11-25T20:57:56.414Z,103260.00
2022-11-25T21:00:26.868Z,103255.66
2022-11-25T21:02:57.345Z,103263.47
2022-11-25T21:05:27.591Z,103266.09
2022-11-25T21:07:55.857Z,103281.69
2022-11-25T21:10:28.342Z,103286.91
2022-11-25T21:12:57.398Z,103293.84
2022-11-25T21:15:27.666Z,103298.16
2022-11-25T21:17:59.631Z,103292.94
2022-11-25T21:20:27.946Z,103291.22
2022-11-25T21:22:59.093Z,103296.41
2022-11-25T21:25:27.479Z,103289.44
2022-11-25T21:27:55.797Z,103285.09
2022-11-25T21:30:25.669Z,103294.63
2022-11-25T21:32:56.911Z,103295.50
2022-11-25T21:35:29.398Z,103300.72
2022-11-25T21:37:57.538Z,103305.94
2022-11-25T21:40:33.303Z,103300.72
2022-11-25T21:43:01.943Z,103307.63
2022-11-25T21:45:30.009Z,103296.34
2022-11-25T21:48:00.155Z,103303.31
2022-11-25T21:50:30.026Z,103304.19
2022-11-25T21:52:58.311Z,103302.44
2022-11-25T21:55:26.658Z,103302.47
2022-11-25T21:57:54.625Z,103305.09
2022-11-25T22:00:26.419Z,103309.41
2022-11-25T22:02:54.678Z,103313.75
2022-11-25T22:05:26.688Z,103313.78
2022-11-25T22:07:55.316Z,103314.63
2022-11-25T22:10:23.968Z,103317.28
2022-11-25T22:12:52.097Z,103315.53
2022-11-25T22:15:22.587Z,103319.03
2022-11-25T22:17:54.259Z,103314.66
2022-11-25T22:20:33.460Z,103311.22
2022-11-25T22:23:02.356Z,103312.97
2022-11-25T22:25:32.381Z,103313.84
2022-11-25T22:28:00.395Z,103309.50
2022-11-25T22:30:28.455Z,103309.53
2022-11-25T22:33:01.634Z,103314.75
2022-11-25T22:35:31.025Z,103309.56
2022-11-25T22:37:58.972Z,103303.53
2022-11-25T22:40:27.110Z,103306.97
2022-11-25T22:42:56.785Z,103299.19
2022-11-25T22:45:32.061Z,103292.25
2022-11-25T22:48:06.824Z,103294.03
2022-11-25T22:50:36.808Z,103283.63
2022-11-25T22:53:12.739Z,103280.16
2022-11-25T22:55:40.767Z,103277.56
2022-11-25T22:58:08.787Z,103289.72
2022-11-25T23:00:39.637Z,103292.34
2022-11-25T23:03:13.992Z,103285.38
2022-11-25T23:05:43.434Z,103282.81
2022-11-25T23:08:14.308Z,103288.00
2022-11-25T23:10:42.848Z,103280.22
2022-11-25T23:13:11.495Z,103271.53
2022-11-25T23:15:48.570Z,103273.28
2022-11-25T23:18:21.645Z,103263.72
2022-11-25T23:20:50.968Z,103264.59
2022-11-25T23:23:21.264Z,103266.34
2022-11-25T23:25:49.881Z,103275.88
2022-11-25T23:28:18.505Z,103268.09
2022-11-25T23:30:49.874Z,103271.56
2022-11-25T23:33:24.782Z,103275.91
2022-11-25T23:35:54.418Z,103282.81
2022-11-25T23:38:25.602Z,103296.72
2022-11-25T23:40:53.643Z,103282.81
2022-11-25T23:43:22.093Z,103288.91
2022-11-25T23:45:53.706Z,103292.41
2022-11-25T23:48:27.090Z,103292.41
2022-11-25T23:50:58.179Z,103285.47
2022-11-25T23:53:29.556Z,103286.34
2022-11-25T23:55:57.797Z,103286.31
2022-11-25T23:58:26.049Z,103281.16
